createdAt,value
2024-03-11T00:00:16.796Z,2.42
2024-03-11T00:00:39.862Z,2.40
2024-03-11T00:01:03.106Z,2.35
2024-03-11T00:01:25.890Z,2.33
2024-03-11T00:01:47.514Z,2.30
2024-03-11T00:02:09.195Z,2.75
2024-03-11T00:02:32.240Z,2.45
2024-03-11T00:02:54.051Z,1.85
2024-03-11T00:03:16.417Z,2.10
2024-03-11T00:03:39.309Z,2.20
2024-03-11T00:04:01.457Z,2.40
2024-03-11T00:04:25.083Z,2.38
2024-03-11T00:04:47.265Z,2.50
2024-03-11T00:05:09.929Z,2.47
2024-03-11T00:05:31.714Z,2.60
2024-03-11T00:05:54.520Z,2.40
2024-03-11T00:06:16.182Z,2.28
2024-03-11T00:06:40.353Z,2.30
2024-03-11T00:07:04.849Z,2.25
2024-03-11T00:07:31.443Z,2.10
2024-03-11T00:07:56.765Z,2.40
2024-03-11T00:08:20.808Z,2.37
2024-03-11T00:08:42.688Z,2.25
2024-03-11T00:09:05.986Z,2.90
2024-03-11T00:09:29.856Z,2.70
2024-03-11T00:09:51.618Z,2.30
2024-03-11T00:10:13.984Z,2.00
2024-03-11T00:10:35.923Z,2.63
2024-03-11T00:11:01.185Z,2.50
2024-03-11T00:11:25.333Z,2.88
2024-03-11T00:11:56.234Z,2.65
2024-03-11T00:12:18.808Z,2.63
2024-03-11T00:12:41.844Z,2.92
2024-03-11T00:13:04.008Z,2.47
2024-03-11T00:13:33.245Z,2.15
2024-03-11T00:13:55.223Z,2.50
2024-03-11T00:14:22.177Z,3.35
2024-03-11T00:14:48.141Z,2.35
2024-03-11T00:15:10.653Z,2.58
2024-03-11T00:15:34.938Z,2.50
2024-03-11T00:15:56.566Z,2.80
2024-03-11T00:16:18.237Z,3.08
2024-03-11T00:16:39.865Z,2.65
2024-03-11T00:17:03.706Z,3.00
2024-03-11T00:17:26.473Z,2.25
2024-03-11T00:17:49.799Z,3.40
2024-03-11T00:18:11.766Z,3.47
2024-03-11T00:18:34.008Z,2.40
2024-03-11T00:18:55.681Z,2.47
2024-03-11T00:19:17.294Z,2.72
2024-03-11T00:19:40.043Z,2.00
2024-03-11T00:20:01.814Z,1.92
2024-03-11T00:20:23.679Z,2.35
2024-03-11T00:20:46.393Z,3.10
2024-03-11T00:21:09.115Z,2.72
2024-03-11T00:21:30.707Z,3.15
2024-03-11T00:21:54.070Z,2.80
2024-03-11T00:22:16.187Z,2.75
2024-03-11T00:22:38.220Z,2.78
2024-03-11T00:22:59.899Z,2.55
2024-03-11T00:23:21.566Z,2.75
2024-03-11T00:23:44.305Z,2.15
2024-03-11T00:24:06.149Z,2.65
2024-03-11T00:24:28.016Z,2.63
2024-03-11T00:24:49.685Z,2.80
2024-03-11T00:25:11.479Z,3.28
2024-03-11T00:25:33.107Z,2.90
2024-03-11T00:25:55.676Z,2.75
2024-03-11T00:26:17.309Z,2.38
2024-03-11T00:26:39.025Z,2.55
2024-03-11T00:27:00.697Z,2.70
2024-03-11T00:27:22.990Z,2.10
2024-03-11T00:27:45.610Z,2.38
2024-03-11T00:28:09.022Z,2.22
2024-03-11T00:28:31.077Z,2.33
2024-03-11T00:28:52.733Z,2.50
2024-03-11T00:29:15.274Z,2.47
2024-03-11T00:29:38.174Z,2.78
2024-03-11T00:30:00.923Z,2.30
2024-03-11T00:30:23.713Z,2.80
2024-03-11T00:30:45.545Z,2.58
2024-03-11T00:31:07.963Z,2.53
2024-03-11T00:31:30.986Z,2.92
2024-03-11T00:31:53.577Z,3.25
2024-03-11T00:32:15.364Z,2.25
2024-03-11T00:32:38.224Z,2.10
2024-03-11T00:33:03.651Z,2.67
2024-03-11T00:33:25.849Z,2.10
2024-03-11T00:33:50.229Z,2.45
2024-03-11T00:34:11.855Z,2.72
2024-03-11T00:34:33.639Z,3.38
2024-03-11T00:34:55.276Z,2.90
2024-03-11T00:35:17.675Z,2.08
2024-03-11T00:35:39.772Z,1.95
2024-03-11T00:36:02.867Z,2.13
2024-03-11T00:36:25.098Z,2.05
2024-03-11T00:36:49.249Z,2.05
2024-03-11T00:37:13.585Z,2.40
2024-03-11T00:37:35.943Z,2.88
2024-03-11T00:37:57.579Z,2.50
2024-03-11T00:38:20.282Z,2.42
2024-03-11T00:38:41.986Z,3.03
2024-03-11T00:39:04.423Z,2.90
2024-03-11T00:39:26.024Z,2.67
2024-03-11T00:39:47.802Z,2.05
2024-03-11T00:40:10.270Z,2.28
2024-03-11T00:40:32.854Z,2.58
2024-03-11T00:40:56.795Z,2.67
2024-03-11T00:41:18.573Z,2.97
2024-03-11T00:41:40.292Z,3.47
2024-03-11T00:42:03.255Z,2.30
2024-03-11T00:42:24.880Z,2.70
2024-03-11T00:42:47.461Z,2.40
2024-03-11T00:43:09.604Z,2.85
2024-03-11T00:43:32.096Z,2.08
2024-03-11T00:43:53.684Z,2.20
2024-03-11T00:44:16.588Z,2.65
2024-03-11T00:44:38.223Z,2.08
2024-03-11T00:45:00.782Z,2.03
2024-03-11T00:45:24.251Z,2.17
2024-03-11T00:45:45.909Z,2.40
2024-03-11T00:46:08.160Z,2.92
2024-03-11T00:46:30.446Z,2.50
2024-03-11T00:46:52.118Z,2.10
2024-03-11T00:47:14.749Z,2.45
2024-03-11T00:47:36.567Z,2.55
2024-03-11T00:47:58.404Z,3.00
2024-03-11T00:48:21.863Z,3.13
2024-03-11T00:48:44.943Z,2.70
2024-03-11T00:49:09.618Z,2.70
2024-03-11T00:49:31.571Z,2.53
2024-03-11T00:49:53.648Z,2.45
2024-03-11T00:50:15.858Z,2.78
2024-03-11T00:50:37.625Z,2.05
2024-03-11T00:51:00.737Z,2.10
2024-03-11T00:51:22.600Z,2.72
2024-03-11T00:51:44.393Z,2.60
2024-03-11T00:52:06.738Z,2.80
2024-03-11T00:52:28.346Z,3.00
2024-03-11T00:52:50.422Z,2.65
2024-03-11T00:53:13.097Z,2.60
2024-03-11T00:53:35.703Z,2.90
2024-03-11T00:53:58.267Z,2.75
2024-03-11T00:54:19.887Z,2.63
2024-03-11T00:54:41.866Z,2.53
2024-03-11T00:55:07.697Z,2.60
2024-03-11T00:55:29.596Z,2.13
2024-03-11T00:55:51.348Z,2.53
2024-03-11T00:56:13.036Z,2.65
2024-03-11T00:56:34.750Z,2.58
2024-03-11T00:56:56.757Z,1.98
2024-03-11T00:57:19.499Z,2.35
2024-03-11T00:57:42.659Z,2.40
2024-03-11T00:58:04.805Z,2.92
2024-03-11T00:58:26.692Z,2.83
2024-03-11T00:58:49.991Z,2.92
2024-03-11T00:59:11.684Z,2.35
2024-03-11T00:59:33.418Z,2.35
2024-03-11T00:59:55.557Z,2.83
2024-03-11T01:00:17.706Z,2.85
2024-03-11T01:00:39.458Z,2.40
2024-03-11T01:01:02.390Z,2.35
2024-03-11T01:01:25.380Z,2.40
2024-03-11T01:01:47.681Z,2.33
2024-03-11T01:02:09.391Z,2.80
2024-03-11T01:02:31.069Z,2.85
2024-03-11T01:02:53.937Z,2.85
2024-03-11T01:03:15.624Z,2.63
2024-03-11T01:03:38.628Z,2.97
2024-03-11T01:04:00.278Z,2.47
2024-03-11T01:04:22.560Z,2.17
2024-03-11T01:04:46.199Z,2.65
2024-03-11T01:05:09.613Z,2.83
2024-03-11T01:05:33.178Z,2.28
2024-03-11T01:05:54.973Z,2.05
2024-03-11T01:06:16.973Z,2.88
2024-03-11T01:06:38.680Z,3.10
2024-03-11T01:07:12.384Z,2.38
2024-03-11T01:07:45.890Z,2.83
2024-03-11T01:08:08.623Z,2.72
2024-03-11T01:08:31.004Z,3.03
2024-03-11T01:08:52.810Z,2.92
2024-03-11T01:09:21.240Z,2.92
2024-03-11T01:09:42.891Z,2.97
2024-03-11T01:10:05.408Z,3.22
2024-03-11T01:10:27.088Z,2.42
2024-03-11T01:10:48.781Z,2.20
2024-03-11T01:11:12.171Z,2.47
2024-03-11T01:11:33.955Z,2.20
2024-03-11T01:11:56.003Z,2.55
2024-03-11T01:12:17.745Z,2.40
2024-03-11T01:12:39.401Z,2.20
2024-03-11T01:13:02.012Z,2.55
2024-03-11T01:13:23.969Z,2.53
2024-03-11T01:13:47.015Z,2.78
2024-03-11T01:14:17.863Z,2.38
2024-03-11T01:14:39.768Z,2.05
2024-03-11T01:15:04.091Z,3.28
2024-03-11T01:15:26.852Z,2.65
2024-03-11T01:15:49.190Z,2.53
2024-03-11T01:16:11.607Z,2.45
2024-03-11T01:16:34.572Z,2.50
2024-03-11T01:16:56.269Z,2.70
2024-03-11T01:17:19.004Z,2.92
2024-03-11T01:17:41.504Z,2.60
2024-03-11T01:18:05.207Z,2.95
2024-03-11T01:19:23.630Z,2.20
2024-03-11T01:19:45.659Z,1.88
2024-03-11T01:20:10.769Z,2.28
2024-03-11T01:20:32.673Z,2.65
2024-03-11T01:20:55.903Z,2.47
2024-03-11T01:21:18.695Z,2.38
2024-03-11T01:21:42.678Z,2.72
2024-03-11T01:22:04.361Z,2.88
2024-03-11T01:22:26.044Z,2.88
2024-03-11T01:22:47.680Z,2.85
2024-03-11T01:23:09.701Z,3.10
2024-03-11T01:23:32.787Z,2.60
2024-03-11T01:23:54.849Z,2.58
2024-03-11T01:24:17.878Z,2.60
2024-03-11T01:24:40.403Z,2.80
2024-03-11T01:25:02.023Z,2.15
2024-03-11T01:25:24.623Z,3.30
2024-03-11T01:25:46.299Z,2.78
2024-03-11T01:26:08.494Z,2.67
2024-03-11T01:26:30.340Z,2.65
2024-03-11T01:26:52.965Z,2.33
2024-03-11T01:27:15.642Z,3.30
2024-03-11T01:27:38.564Z,2.50
2024-03-11T01:28:00.270Z,2.78
2024-03-11T01:28:21.927Z,2.55
2024-03-11T01:28:43.979Z,3.40
2024-03-11T01:29:05.660Z,3.03
2024-03-11T01:29:27.434Z,2.53
2024-03-11T01:29:50.062Z,2.53
2024-03-11T01:30:12.154Z,2.20
2024-03-11T01:30:36.504Z,2.38
2024-03-11T01:30:58.145Z,2.17
2024-03-11T01:31:24.267Z,2.25
2024-03-11T01:31:46.178Z,2.65
2024-03-11T01:32:09.182Z,2.55
2024-03-11T01:32:31.621Z,2.65
2024-03-11T01:32:53.997Z,2.88
2024-03-11T01:33:15.912Z,3.13
2024-03-11T01:33:38.627Z,3.10
2024-03-11T01:34:01.039Z,2.70
2024-03-11T01:34:25.407Z,2.50
2024-03-11T01:34:47.172Z,2.67
2024-03-11T01:35:19.412Z,2.80
2024-03-11T01:35:42.536Z,2.60
2024-03-11T01:36:04.620Z,2.63
2024-03-11T01:36:26.747Z,2.65
2024-03-11T01:36:48.686Z,2.95
2024-03-11T01:37:10.530Z,2.97
2024-03-11T01:37:32.260Z,2.67
2024-03-11T01:37:55.016Z,3.08
2024-03-11T01:38:18.056Z,2.45
2024-03-11T01:38:40.775Z,2.88
2024-03-11T01:39:02.458Z,3.17
2024-03-11T01:39:26.671Z,2.72
2024-03-11T01:39:48.514Z,2.80
2024-03-11T01:40:11.330Z,2.90
2024-03-11T01:40:34.069Z,2.65
2024-03-11T01:40:56.585Z,2.70
2024-03-11T01:41:20.161Z,2.55
2024-03-11T01:41:41.981Z,2.47
2024-03-11T01:42:05.136Z,2.47
2024-03-11T01:42:27.996Z,3.08
2024-03-11T01:42:51.382Z,2.33
2024-03-11T01:43:15.933Z,2.53
2024-03-11T01:43:37.554Z,2.72
2024-03-11T01:43:59.199Z,2.00
2024-03-11T01:44:22.857Z,2.63
2024-03-11T01:44:45.216Z,2.70
2024-03-11T01:45:08.308Z,3.00
2024-03-11T01:45:33.449Z,3.22
2024-03-11T01:45:55.237Z,3.40
2024-03-11T01:46:18.570Z,3.20
2024-03-11T01:46:40.231Z,2.75
2024-03-11T01:47:02.580Z,3.25
2024-03-11T01:47:26.913Z,2.78
2024-03-11T01:47:55.456Z,2.83
2024-03-11T01:48:17.929Z,2.60
2024-03-11T01:48:41.700Z,2.40
2024-03-11T01:49:05.498Z,2.50
2024-03-11T01:49:28.624Z,2.78
2024-03-11T01:49:54.801Z,2.55
2024-03-11T01:50:18.288Z,2.55
2024-03-11T01:50:40.427Z,3.40
2024-03-11T01:51:05.155Z,2.47
2024-03-11T01:51:27.755Z,2.33
2024-03-11T01:51:51.335Z,2.42
2024-03-11T01:52:15.807Z,2.70
2024-03-11T01:52:44.198Z,2.60
2024-03-11T01:53:06.590Z,2.58
2024-03-11T01:53:29.866Z,3.03
2024-03-11T01:53:52.149Z,2.72
2024-03-11T01:54:15.500Z,3.03
2024-03-11T01:54:39.305Z,2.85
2024-03-11T01:55:01.062Z,2.78
2024-03-11T01:55:26.070Z,2.78
2024-03-11T01:55:49.343Z,2.85
2024-03-11T01:56:12.230Z,2.53
2024-03-11T01:56:34.027Z,2.63
2024-03-11T01:56:56.550Z,3.00
2024-03-11T01:57:18.487Z,2.65
2024-03-11T01:57:40.967Z,3.13
2024-03-11T01:58:04.477Z,2.40
2024-03-11T01:58:30.142Z,2.92
2024-03-11T01:58:53.269Z,3.30
2024-03-11T01:59:15.936Z,2.63
2024-03-11T01:59:39.063Z,2.22
2024-03-11T02:00:00.780Z,2.67
2024-03-11T02:00:23.494Z,2.58
2024-03-11T02:00:46.741Z,3.22
2024-03-11T02:01:09.412Z,3.28
2024-03-11T02:01:31.493Z,2.65
2024-03-11T02:01:54.060Z,3.10
2024-03-11T02:02:15.859Z,3.42
2024-03-11T02:02:37.704Z,2.73
2024-03-11T02:02:59.397Z,3.10
2024-03-11T02:03:23.869Z,3.30
2024-03-11T02:03:45.841Z,3.25
2024-03-11T02:04:07.507Z,2.22
2024-03-11T02:04:31.132Z,2.85
2024-03-11T02:04:52.958Z,2.45
2024-03-11T02:05:15.370Z,2.85
2024-03-11T02:05:41.676Z,2.33
2024-03-11T02:06:03.948Z,2.53
2024-03-11T02:06:26.012Z,2.78
2024-03-11T02:06:47.665Z,2.60
2024-03-11T02:07:09.850Z,2.47
2024-03-11T02:07:31.877Z,2.33
2024-03-11T02:07:58.804Z,2.95
2024-03-11T02:08:23.212Z,3.40
2024-03-11T02:08:45.029Z,2.92
2024-03-11T02:09:09.055Z,2.95
2024-03-11T02:09:31.766Z,2.47
2024-03-11T02:09:53.403Z,3.28
2024-03-11T02:10:15.336Z,2.83
2024-03-11T02:10:37.572Z,2.75
2024-03-11T02:10:59.361Z,3.40
2024-03-11T02:11:22.216Z,2.83
2024-03-11T02:11:44.690Z,2.70
2024-03-11T02:12:07.513Z,2.55
2024-03-11T02:12:29.151Z,3.22
2024-03-11T02:12:50.799Z,2.67
2024-03-11T02:13:12.451Z,2.85
2024-03-11T02:13:35.175Z,2.75
2024-03-11T02:13:56.849Z,2.92
2024-03-11T02:14:18.469Z,3.35
2024-03-11T02:14:41.416Z,2.85
2024-03-11T02:15:03.172Z,2.80
2024-03-11T02:15:26.510Z,3.45
2024-03-11T02:15:48.340Z,2.90
2024-03-11T02:16:10.083Z,3.08
2024-03-11T02:16:32.998Z,3.47
2024-03-11T02:16:54.801Z,2.40
2024-03-11T02:17:18.251Z,2.30
2024-03-11T02:17:40.945Z,2.83
2024-03-11T02:18:02.835Z,2.95
2024-03-11T02:18:24.838Z,2.90
2024-03-11T02:18:46.838Z,2.88
2024-03-11T02:19:12.841Z,3.20
2024-03-11T02:19:36.058Z,2.80
2024-03-11T02:19:57.935Z,3.63
2024-03-11T02:20:20.573Z,3.83
2024-03-11T02:20:43.516Z,3.90
2024-03-11T02:21:05.396Z,4.15
2024-03-11T02:21:27.256Z,3.28
2024-03-11T02:21:49.063Z,3.00
2024-03-11T02:22:10.691Z,2.78
2024-03-11T02:22:33.512Z,3.13
2024-03-11T02:22:58.426Z,2.72
2024-03-11T02:23:21.537Z,3.78
2024-03-11T02:23:43.366Z,3.40
2024-03-11T02:24:07.319Z,3.03
2024-03-11T02:24:28.951Z,3.72
2024-03-11T02:24:50.536Z,3.35
2024-03-11T02:25:13.986Z,3.27
2024-03-11T02:25:36.808Z,2.90
2024-03-11T02:25:58.444Z,2.88
2024-03-11T02:26:21.138Z,2.67
2024-03-11T02:26:46.585Z,3.35
2024-03-11T02:27:08.909Z,2.80
2024-03-11T02:27:33.044Z,2.63
2024-03-11T02:27:56.768Z,3.97
2024-03-11T02:28:19.626Z,2.83
2024-03-11T02:28:41.270Z,2.65
2024-03-11T02:29:03.666Z,2.92
2024-03-11T02:29:25.395Z,2.80
2024-03-11T02:29:48.256Z,3.15
2024-03-11T02:30:11.820Z,3.33
2024-03-11T02:30:33.773Z,3.22
2024-03-11T02:30:55.519Z,3.55
2024-03-11T02:31:18.218Z,3.30
2024-03-11T02:31:39.842Z,2.83
2024-03-11T02:32:02.601Z,2.92
2024-03-11T02:32:24.744Z,2.83
2024-03-11T02:32:46.902Z,2.85
2024-03-11T02:33:08.707Z,2.83
2024-03-11T02:33:31.257Z,2.85
2024-03-11T02:33:54.272Z,2.85
2024-03-11T02:34:16.905Z,2.80
2024-03-11T02:34:38.683Z,3.00
2024-03-11T02:35:00.837Z,3.03
2024-03-11T02:35:22.613Z,3.45
2024-03-11T02:35:45.437Z,4.05
2024-03-11T02:36:08.046Z,3.80
2024-03-11T02:36:29.741Z,3.05
2024-03-11T02:36:52.048Z,3.33
2024-03-11T02:37:13.780Z,4.22
2024-03-11T02:37:35.606Z,2.92
2024-03-11T02:37:58.429Z,2.75
2024-03-11T02:38:22.519Z,3.22
2024-03-11T02:38:44.309Z,3.13
2024-03-11T02:39:06.330Z,3.20
2024-03-11T02:39:28.986Z,2.78
2024-03-11T02:39:52.428Z,3.13
2024-03-11T02:40:14.817Z,3.85
2024-03-11T02:40:39.491Z,3.00
2024-03-11T02:41:01.422Z,2.83
2024-03-11T02:41:23.254Z,3.38
2024-03-11T02:41:46.793Z,3.10
2024-03-11T02:42:08.608Z,2.78
2024-03-11T02:42:31.807Z,3.10
2024-03-11T02:42:54.751Z,2.85
2024-03-11T02:43:17.661Z,3.30
2024-03-11T02:43:39.422Z,3.50
2024-03-11T02:44:01.609Z,2.97
2024-03-11T02:44:24.693Z,3.30
2024-03-11T02:44:46.582Z,3.30
2024-03-11T02:45:13.013Z,2.85
2024-03-11T02:45:35.609Z,3.30
2024-03-11T02:45:58.272Z,3.33
2024-03-11T02:46:20.085Z,2.72
2024-03-11T02:46:42.835Z,3.20
2024-03-11T02:47:04.819Z,3.20
2024-03-11T02:47:27.232Z,2.55
2024-03-11T02:47:50.583Z,3.15
2024-03-11T02:48:13.544Z,3.22
2024-03-11T02:48:36.280Z,3.35
2024-03-11T02:48:58.526Z,3.25
2024-03-11T02:49:20.182Z,3.33
2024-03-11T02:49:41.834Z,3.50
2024-03-11T02:50:07.051Z,3.42
2024-03-11T02:50:29.449Z,3.60
2024-03-11T02:50:52.127Z,3.50
2024-03-11T02:51:13.778Z,3.40
2024-03-11T02:51:36.829Z,3.30
2024-03-11T02:52:00.133Z,3.33
2024-03-11T02:52:22.563Z,3.30
2024-03-11T02:52:44.303Z,2.92
2024-03-11T02:53:06.969Z,3.40
2024-03-11T02:53:31.606Z,3.22
2024-03-11T02:53:53.468Z,3.70
2024-03-11T02:54:15.499Z,3.30
2024-03-11T02:54:38.522Z,3.05
2024-03-11T02:55:02.353Z,3.65
2024-03-11T02:55:24.275Z,3.40
2024-03-11T02:55:46.116Z,3.63
2024-03-11T02:56:08.937Z,3.45
2024-03-11T02:56:32.876Z,3.33
2024-03-11T02:56:54.592Z,3.35
2024-03-11T02:57:16.276Z,3.35
2024-03-11T02:57:38.153Z,3.28
2024-03-11T02:57:59.818Z,3.60
2024-03-11T02:58:22.499Z,2.80
2024-03-11T02:58:44.442Z,3.00
2024-03-11T02:59:06.586Z,3.40
2024-03-11T02:59:28.450Z,2.90
2024-03-11T02:59:51.210Z,3.22
2024-03-11T03:00:13.645Z,3.45
2024-03-11T03:00:37.110Z,2.85
2024-03-11T03:00:58.791Z,3.58
2024-03-11T03:01:20.527Z,3.80
2024-03-11T03:01:42.688Z,3.13
2024-03-11T03:02:04.379Z,3.00
2024-03-11T03:02:28.207Z,2.85
2024-03-11T03:02:51.613Z,3.50
2024-03-11T03:03:15.613Z,3.22
2024-03-11T03:03:37.308Z,3.00
2024-03-11T03:03:59.564Z,2.85
2024-03-11T03:04:21.370Z,3.13
2024-03-11T03:04:44.076Z,3.58
2024-03-11T03:05:07.246Z,4.43
2024-03-11T03:05:28.989Z,3.70
2024-03-11T03:05:50.820Z,3.80
2024-03-11T03:06:12.685Z,3.67
2024-03-11T03:06:35.392Z,2.72
2024-03-11T03:06:59.049Z,3.30
2024-03-11T03:07:20.712Z,3.92
2024-03-11T03:07:42.383Z,3.67
2024-03-11T03:08:05.874Z,3.83
2024-03-11T03:08:27.574Z,3.38
2024-03-11T03:08:50.877Z,3.53
2024-03-11T03:09:12.893Z,3.35
2024-03-11T03:09:34.824Z,2.65
2024-03-11T03:09:56.580Z,2.90
2024-03-11T03:10:19.252Z,2.77
2024-03-11T03:10:41.051Z,3.60
2024-03-11T03:11:04.360Z,3.10
2024-03-11T03:11:26.708Z,2.83
2024-03-11T03:11:48.620Z,3.25
2024-03-11T03:12:12.247Z,3.33
2024-03-11T03:12:33.996Z,2.80
2024-03-11T03:12:55.705Z,3.28
2024-03-11T03:13:17.421Z,3.50
2024-03-11T03:13:39.332Z,3.28
2024-03-11T03:14:03.043Z,3.47
2024-03-11T03:14:24.829Z,3.85
2024-03-11T03:14:46.620Z,3.70
2024-03-11T03:15:09.664Z,3.03
2024-03-11T03:15:31.558Z,2.63
2024-03-11T03:15:54.260Z,3.90
2024-03-11T03:16:16.999Z,3.60
2024-03-11T03:16:38.737Z,3.33
2024-03-11T03:17:00.470Z,3.42
2024-03-11T03:17:22.247Z,4.07
2024-03-11T03:17:44.704Z,3.15
2024-03-11T03:18:08.061Z,3.20
2024-03-11T03:18:29.971Z,4.13
2024-03-11T03:18:51.657Z,3.85
2024-03-11T03:19:13.401Z,3.25
2024-03-11T03:19:35.790Z,2.83
2024-03-11T03:19:57.568Z,2.80
2024-03-11T03:20:21.300Z,3.17
2024-03-11T03:20:43.108Z,3.63
2024-03-11T03:21:07.344Z,3.30
2024-03-11T03:21:29.043Z,3.97
2024-03-11T03:21:50.860Z,4.18
2024-03-11T03:22:12.567Z,3.42
2024-03-11T03:22:35.274Z,3.38
2024-03-11T03:22:57.437Z,3.33
2024-03-11T03:23:19.277Z,3.50
2024-03-11T03:23:41.183Z,3.72
2024-03-11T03:24:04.493Z,4.00
2024-03-11T03:24:26.204Z,3.88
2024-03-11T03:24:51.061Z,3.85
2024-03-11T03:25:14.136Z,3.22
2024-03-11T03:25:35.901Z,3.65
2024-03-11T03:25:57.645Z,3.60
2024-03-11T03:26:21.020Z,3.78
2024-03-11T03:26:42.836Z,4.03
2024-03-11T03:27:04.805Z,3.05
2024-03-11T03:27:26.918Z,3.38
2024-03-11T03:27:48.614Z,3.47
2024-03-11T03:28:10.467Z,3.75
2024-03-11T03:28:33.288Z,3.45
2024-03-11T03:28:54.975Z,3.55
2024-03-11T03:29:16.861Z,3.90
2024-03-11T03:29:41.189Z,2.65
2024-03-11T03:30:04.248Z,3.38
2024-03-11T03:30:27.680Z,3.55
2024-03-11T03:30:49.914Z,3.33
2024-03-11T03:31:12.336Z,3.72
2024-03-11T03:31:34.044Z,2.88
2024-03-11T03:31:56.582Z,3.05
2024-03-11T03:32:20.793Z,3.13
2024-03-11T03:32:43.599Z,3.45
2024-03-11T03:33:06.300Z,2.83
2024-03-11T03:33:28.955Z,3.33
2024-03-11T03:33:51.160Z,3.90
2024-03-11T03:34:14.257Z,3.45
2024-03-11T03:34:35.957Z,3.03
2024-03-11T03:34:57.620Z,3.25
2024-03-11T03:35:19.364Z,3.28
2024-03-11T03:35:41.061Z,3.35
2024-03-11T03:36:04.471Z,3.67
2024-03-11T03:36:26.257Z,3.53
2024-03-11T03:36:48.147Z,3.35
2024-03-11T03:37:10.328Z,2.92
2024-03-11T03:37:32.063Z,3.42
2024-03-11T03:37:56.713Z,3.55
2024-03-11T03:38:18.459Z,3.85
2024-03-11T03:38:40.156Z,3.90
2024-03-11T03:39:01.912Z,2.85
2024-03-11T03:39:25.620Z,3.22
2024-03-11T03:39:48.713Z,2.95
2024-03-11T03:40:17.455Z,2.93
2024-03-11T03:40:39.737Z,2.95
2024-03-11T03:41:01.450Z,2.88
2024-03-11T03:41:23.304Z,3.70
2024-03-11T03:41:46.262Z,2.92
2024-03-11T03:42:08.107Z,3.08
2024-03-11T03:42:29.813Z,3.45
2024-03-11T03:42:52.004Z,3.85
2024-03-11T03:43:14.669Z,3.80
2024-03-11T03:43:36.396Z,3.50
2024-03-11T03:43:58.297Z,3.60
2024-03-11T03:44:20.043Z,2.97
2024-03-11T03:44:41.985Z,3.53
2024-03-11T03:45:04.342Z,3.67
2024-03-11T03:45:28.572Z,3.50
2024-03-11T03:45:50.500Z,3.58
2024-03-11T03:46:12.262Z,3.67
2024-03-11T03:46:33.964Z,3.75
2024-03-11T03:46:56.571Z,3.80
2024-03-11T03:47:19.341Z,3.65
2024-03-11T03:47:41.887Z,3.47
2024-03-11T03:48:04.148Z,3.15
2024-03-11T03:48:26.588Z,3.10
2024-03-11T03:48:49.860Z,2.65
2024-03-11T03:49:11.540Z,3.28
2024-03-11T03:49:34.218Z,3.33
2024-03-11T03:49:55.954Z,3.53
2024-03-11T03:50:19.005Z,3.47
2024-03-11T03:50:40.875Z,3.42
2024-03-11T03:51:04.712Z,3.63
2024-03-11T03:51:27.731Z,4.05
2024-03-11T03:51:49.512Z,3.50
2024-03-11T03:52:11.160Z,3.97
2024-03-11T03:52:32.875Z,3.30
2024-03-11T03:52:54.576Z,2.45
2024-03-11T03:53:16.316Z,2.70
2024-03-11T03:53:39.071Z,3.53
2024-03-11T03:54:01.750Z,3.03
2024-03-11T03:54:25.055Z,3.38
2024-03-11T03:54:46.914Z,3.35
2024-03-11T03:55:09.767Z,3.33
2024-03-11T03:55:32.545Z,3.42
2024-03-11T03:55:54.392Z,3.45
2024-03-11T03:56:16.549Z,3.75
2024-03-11T03:56:39.788Z,4.03
2024-03-11T03:57:01.628Z,3.25
2024-03-11T03:57:23.481Z,3.03
2024-03-11T03:57:46.656Z,3.80
2024-03-11T03:58:08.892Z,3.35
2024-03-11T03:58:34.014Z,4.10
2024-03-11T03:58:56.673Z,3.85
2024-03-11T03:59:18.402Z,3.03
2024-03-11T03:59:40.752Z,3.70
2024-03-11T04:00:02.424Z,3.80
2024-03-11T04:00:29.958Z,3.42
2024-03-11T04:00:51.585Z,3.13
2024-03-11T04:01:13.360Z,3.00
2024-03-11T04:01:35.053Z,3.85
2024-03-11T04:01:56.768Z,3.70
2024-03-11T04:02:18.402Z,3.28
2024-03-11T04:02:41.129Z,3.22
2024-03-11T04:03:04.261Z,3.25
2024-03-11T04:03:28.143Z,3.50
2024-03-11T04:03:49.783Z,3.40
2024-03-11T04:04:12.432Z,3.25
2024-03-11T04:04:34.076Z,2.83
2024-03-11T04:04:55.711Z,3.38
2024-03-11T04:05:19.606Z,3.33
2024-03-11T04:05:41.487Z,3.58
2024-03-11T04:06:06.109Z,3.38
2024-03-11T04:06:27.731Z,2.75
2024-03-11T04:06:50.391Z,2.67
2024-03-11T04:07:12.012Z,3.83
2024-03-11T04:07:33.729Z,3.58
2024-03-11T04:07:56.683Z,3.50
2024-03-11T04:08:18.971Z,3.67
2024-03-11T04:08:40.876Z,3.47
2024-03-11T04:09:03.499Z,3.78
2024-03-11T04:09:26.500Z,3.17
2024-03-11T04:09:48.132Z,3.38
2024-03-11T04:10:14.275Z,3.15
2024-03-11T04:10:36.155Z,3.33
2024-03-11T04:10:59.307Z,3.33
2024-03-11T04:11:21.832Z,3.33
2024-03-11T04:11:43.764Z,3.33
2024-03-11T04:12:07.516Z,3.05
2024-03-11T04:12:29.351Z,3.45
2024-03-11T04:12:53.914Z,3.40
2024-03-11T04:13:16.535Z,2.75
2024-03-11T04:13:40.900Z,3.10
2024-03-11T04:14:03.318Z,3.67
2024-03-11T04:14:25.212Z,3.53
2024-03-11T04:14:47.100Z,3.47
2024-03-11T04:15:13.826Z,3.67
2024-03-11T04:15:38.056Z,3.40
2024-03-11T04:15:59.761Z,3.35
2024-03-11T04:16:21.754Z,3.30
2024-03-11T04:16:43.598Z,3.42
2024-03-11T04:17:07.279Z,3.22
2024-03-11T04:17:29.098Z,3.45
2024-03-11T04:17:54.655Z,3.13
2024-03-11T04:18:17.815Z,2.92
2024-03-11T04:18:39.547Z,3.85
2024-03-11T04:19:01.526Z,3.97
2024-03-11T04:19:26.219Z,3.40
2024-03-11T04:19:49.108Z,3.42
2024-03-11T04:20:13.147Z,3.60
2024-03-11T04:20:35.394Z,3.25
2024-03-11T04:20:57.434Z,3.22
2024-03-11T04:21:19.161Z,3.03
2024-03-11T04:21:41.845Z,2.80
2024-03-11T04:22:04.334Z,3.42
2024-03-11T04:22:26.022Z,3.35
2024-03-11T04:22:50.612Z,3.47
2024-03-11T04:23:13.258Z,3.30
2024-03-11T04:23:35.190Z,3.08
2024-03-11T04:24:00.362Z,3.90
2024-03-11T04:24:22.685Z,3.22
2024-03-11T04:24:45.753Z,2.72
2024-03-11T04:25:09.043Z,3.05
2024-03-11T04:25:32.335Z,2.88
2024-03-11T04:25:54.123Z,3.15
2024-03-11T04:26:17.770Z,2.97
2024-03-11T04:26:39.869Z,3.85
2024-03-11T04:27:01.697Z,3.03
2024-03-11T04:27:23.873Z,3.13
2024-03-11T04:27:47.075Z,3.42
2024-03-11T04:28:10.088Z,3.17
2024-03-11T04:28:31.798Z,3.20
2024-03-11T04:28:53.513Z,3.20
2024-03-11T04:29:16.489Z,3.50
2024-03-11T04:29:38.331Z,3.15
2024-03-11T04:30:00.556Z,2.97
2024-03-11T04:30:27.696Z,2.78
2024-03-11T04:30:49.381Z,2.90
2024-03-11T04:31:11.236Z,2.83
2024-03-11T04:31:34.176Z,2.58
2024-03-11T04:31:57.624Z,3.03
2024-03-11T04:32:20.358Z,2.60
2024-03-11T04:32:42.335Z,2.85
2024-03-11T04:33:04.524Z,3.70
2024-03-11T04:33:26.451Z,3.47
2024-03-11T04:33:48.118Z,2.60
2024-03-11T04:34:11.671Z,3.22
2024-03-11T04:34:33.985Z,3.00
2024-03-11T04:34:55.604Z,3.67
2024-03-11T04:35:18.053Z,3.25
2024-03-11T04:35:41.770Z,3.40
2024-03-11T04:36:05.083Z,3.00
2024-03-11T04:36:27.006Z,3.20
2024-03-11T04:36:49.844Z,3.08
2024-03-11T04:37:11.548Z,3.03
2024-03-11T04:37:33.440Z,3.50
2024-03-11T04:37:56.847Z,3.20
2024-03-11T04:38:19.417Z,2.97
2024-03-11T04:38:42.339Z,3.13
2024-03-11T04:39:06.138Z,3.05
2024-03-11T04:39:29.013Z,3.58
2024-03-11T04:39:52.044Z,3.33
2024-03-11T04:40:13.752Z,2.55
2024-03-11T04:40:37.011Z,2.83
2024-03-11T04:40:59.695Z,3.30
2024-03-11T04:41:21.484Z,3.05
2024-03-11T04:41:43.763Z,3.25
2024-03-11T04:42:06.133Z,3.28
2024-03-11T04:42:27.774Z,2.78
2024-03-11T04:42:49.638Z,2.45
2024-03-11T04:43:12.990Z,3.05
2024-03-11T04:43:37.548Z,3.60
2024-03-11T04:43:59.421Z,3.28
2024-03-11T04:44:21.037Z,2.83
2024-03-11T04:44:42.769Z,2.85
2024-03-11T04:45:06.640Z,2.88
2024-03-11T04:45:29.127Z,2.80
2024-03-11T04:45:50.786Z,2.85
2024-03-11T04:46:12.448Z,2.97
2024-03-11T04:46:34.085Z,3.25
2024-03-11T04:46:55.794Z,3.38
2024-03-11T04:47:19.432Z,3.17
2024-03-11T04:47:41.229Z,3.00
2024-03-11T04:48:03.420Z,4.05
2024-03-11T04:48:25.385Z,3.38
2024-03-11T04:48:47.762Z,3.40
2024-03-11T04:49:10.457Z,3.63
2024-03-11T04:49:32.085Z,3.57
2024-03-11T04:49:53.729Z,3.70
2024-03-11T04:50:22.121Z,2.92
2024-03-11T04:50:44.638Z,3.15
2024-03-11T04:51:07.864Z,3.42
2024-03-11T04:51:29.677Z,2.90
2024-03-11T04:51:51.648Z,2.88
2024-03-11T04:52:13.379Z,3.03
2024-03-11T04:52:35.006Z,3.33
2024-03-11T04:52:59.122Z,3.40
2024-03-11T04:53:20.772Z,3.60
2024-03-11T04:53:44.633Z,3.13
2024-03-11T04:54:09.292Z,3.25
2024-03-11T04:54:31.904Z,2.60
2024-03-11T04:54:56.893Z,2.92
2024-03-11T04:55:18.809Z,2.88
2024-03-11T04:55:41.384Z,3.15
2024-03-11T04:56:03.426Z,3.38
2024-03-11T04:56:27.260Z,2.95
2024-03-11T04:56:50.343Z,2.85
2024-03-11T04:57:12.260Z,3.58
2024-03-11T04:57:34.577Z,3.70
2024-03-11T04:57:58.105Z,3.13
2024-03-11T04:58:19.982Z,3.15
2024-03-11T04:58:41.643Z,3.00
2024-03-11T04:59:05.404Z,3.28
2024-03-11T04:59:27.096Z,2.47
2024-03-11T04:59:48.909Z,3.70
2024-03-11T05:00:13.500Z,3.28
2024-03-11T05:00:35.435Z,3.63
2024-03-11T05:00:57.199Z,3.13
2024-03-11T05:01:19.186Z,3.40
2024-03-11T05:01:41.839Z,2.90
2024-03-11T05:02:04.258Z,3.53
2024-03-11T05:02:25.954Z,3.75
2024-03-11T05:02:49.043Z,3.38